Time;durP1;ratioP1;P1;durP2;ratioP2;P2;SDS_P1;SDS_P2;PMS_P1;PMS_P2;Temp;Humidity;BMP_temperature;BMP_pressure;BME280_temperature;BME280_humidity;BME280_pressure;Samples;Min_cycle;Max_cycle;Signal;HPM_P1;HPM_P2
2022/08/13 00:01:36;;;;;;;0.28;0.25;;;15.60;99.90;;;;;;4959787;28;20024;-76
2022/08/13 00:04:03;;;;;;;0.08;0.08;;;15.70;99.90;;;;;;4959573;29;20023;-75
2022/08/13 00:09:08;;;;;;;0.30;0.30;;;15.50;99.90;;;;;;4956816;29;20055;-77
2022/08/13 00:14:22;;;;;;;0.65;0.45;;;15.50;99.90;;;;;;4959772;29;20040;-76
2022/08/13 00:16:49;;;;;;;0.00;0.00;;;15.40;99.90;;;;;;4960070;29;20020;-75
2022/08/13 00:19:15;;;;;;;0.00;0.00;;;15.30;99.90;;;;;;4959716;28;20091;-77
2022/08/13 00:21:41;;;;;;;0.65;0.10;;;15.30;99.90;;;;;;4960025;29;20035;-75
2022/08/13 00:24:07;;;;;;;0.40;0.30;;;15.30;99.90;;;;;;4959759;29;20055;-76
2022/08/13 00:26:33;;;;;;;0.00;0.00;;;15.30;99.90;;;;;;4959861;29;20032;-76
2022/08/13 00:29:00;;;;;;;2.65;0.77;;;15.40;99.90;;;;;;4959632;28;20043;-76
2022/08/13 00:31:27;;;;;;;0.08;0.08;;;15.30;99.90;;;;;;4959396;29;20055;-76
2022/08/13 00:33:54;;;;;;;0.08;0.08;;;15.30;99.90;;;;;;4957779;29;20038;-77
2022/08/13 00:36:21;;;;;;;1.33;0.47;;;15.30;99.90;;;;;;4940439;29;20088;-76
2022/08/13 00:38:48;;;;;;;0.40;0.40;;;15.60;99.90;;;;;;4940273;29;20028;-76
2022/08/13 00:41:37;;;;;;;0.28;0.20;;;15.20;99.90;;;;;;4954439;29;20027;-76
2022/08/13 00:44:00;;;;;;;0.00;0.00;;;15.30;99.90;;;;;;4959346;28;20048;-76
2022/08/13 00:46:26;;;;;;;1.63;1.13;;;15.20;99.90;;;;;;4959562;29;20083;-75
2022/08/13 00:48:54;;;;;;;0.10;0.10;;;15.10;99.90;;;;;;4959777;28;20080;-75
2022/08/13 00:51:26;;;;;;;0.20;0.15;;;15.00;99.90;;;;;;4959629;28;20067;-77
2022/08/13 00:53:53;;;;;;;0.17;0.15;;;15.10;99.90;;;;;;4961602;28;20028;-76
2022/08/13 00:56:22;;;;;;;0.68;0.65;;;15.00;99.90;;;;;;4963319;28;20023;-76
2022/08/13 00:58:49;;;;;;;1.15;0.30;;;15.00;99.90;;;;;;4962453;29;20083;-77
2022/08/13 01:01:15;;;;;;;0.85;0.57;;;15.20;99.90;;;;;;4963175;28;20055;-78
2022/08/13 01:03:41;;;;;;;0.57;0.38;;;15.00;99.90;;;;;;4962949;29;20047;-77
2022/08/13 01:06:08;;;;;;;0.80;0.43;;;14.90;99.90;;;;;;4963298;28;20086;-76
2022/08/13 01:08:38;;;;;;;0.03;0.03;;;15.10;99.90;;;;;;4963243;28;20063;-76
2022/08/13 01:11:08;;;;;;;0.45;0.45;;;14.90;99.90;;;;;;4962985;28;20115;-77
2022/08/13 01:13:36;;;;;;;0.05;0.05;;;14.80;99.90;;;;;;4963262;28;20035;-76
2022/08/13 01:16:04;;;;;;;0.38;0.32;;;14.80;99.90;;;;;;4963080;28;20028;-76
2022/08/13 01:18:31;;;;;;;0.45;0.32;;;14.70;99.90;;;;;;4963203;29;20043;-76
2022/08/13 01:21:00;;;;;;;0.00;0.00;;;14.60;99.90;;;;;;4962867;28;20058;-76
2022/08/13 01:23:30;;;;;;;0.85;0.77;;;14.70;99.90;;;;;;4962912;28;20059;-76
2022/08/13 01:25:59;;;;;;;0.63;0.55;;;14.70;99.90;;;;;;4963003;28;20039;-77
2022/08/13 01:28:27;;;;;;;1.45;1.25;;;14.80;99.90;;;;;;4963086;29;20038;-77
2022/08/13 01:30:54;;;;;;;0.57;0.57;;;14.70;99.90;;;;;;4962633;28;20031;-76
2022/08/13 01:33:20;;;;;;;0.82;0.82;;;14.80;99.90;;;;;;4962830;28;20047;-77
2022/08/13 01:35:47;;;;;;;0.20;0.20;;;14.80;99.90;;;;;;4962950;28;20040;-77
2022/08/13 01:38:14;;;;;;;0.47;0.47;;;15.00;99.90;;;;;;4962827;28;20059;-75
2022/08/13 01:40:41;;;;;;;1.02;0.93;;;14.80;99.90;;;;;;4962720;28;20043;-76
2022/08/13 01:43:08;;;;;;;0.15;0.15;;;14.80;99.90;;;;;;4962646;28;20059;-75
2022/08/13 01:45:34;;;;;;;0.17;0.17;;;14.70;99.90;;;;;;4962786;28;20047;-76
2022/08/13 01:50:46;;;;;;;0.30;0.25;;;14.50;99.90;;;;;;4962396;29;20036;-75
2022/08/13 01:53:14;;;;;;;0.00;0.00;;;14.60;99.90;;;;;;4962600;28;20051;-75
2022/08/13 01:55:42;;;;;;;1.08;0.52;;;14.40;99.90;;;;;;4962558;28;20083;-75
2022/08/13 01:58:11;;;;;;;1.70;1.23;;;14.40;99.90;;;;;;4977784;28;20117;-76
2022/08/13 02:00:39;;;;;;;0.30;0.30;;;14.50;99.90;;;;;;4962184;28;20080;-76
2022/08/13 02:03:09;;;;;;;11.18;0.43;;;14.40;99.90;;;;;;4962300;28;20091;-76
2022/08/13 02:05:38;;;;;;;0.82;0.70;;;14.40;99.90;;;;;;4961050;28;20051;-76
2022/08/13 02:08:06;;;;;;;0.10;0.10;;;14.50;99.90;;;;;;4962035;28;20019;-77
2022/08/13 02:10:32;;;;;;;2.75;0.77;;;14.40;99.90;;;;;;4961595;28;20020;-76
2022/08/13 02:12:58;;;;;;;0.40;0.35;;;14.40;99.90;;;;;;4961833;28;20087;-76
2022/08/13 02:15:24;;;;;;;1.08;0.20;;;14.60;99.90;;;;;;4962118;29;20032;-77
2022/08/13 02:17:50;;;;;;;1.33;0.35;;;14.40;99.90;;;;;;4962216;28;20071;-77
2022/08/13 02:20:17;;;;;;;2.38;1.02;;;14.30;99.90;;;;;;4962048;28;20087;-76
2022/08/13 02:22:47;;;;;;;1.52;0.73;;;14.30;99.90;;;;;;4961535;28;20059;-75
2022/08/13 02:25:15;;;;;;;0.90;0.35;;;14.30;99.90;;;;;;4962048;28;20031;-76
2022/08/13 02:27:41;;;;;;;0.60;0.40;;;14.20;99.90;;;;;;4961908;28;20028;-76
2022/08/13 02:30:09;;;;;;;0.40;0.38;;;14.20;99.90;;;;;;4961563;28;20073;-77
2022/08/13 02:32:37;;;;;;;3.30;1.20;;;14.20;99.90;;;;;;4961786;28;20062;-77
2022/08/13 02:35:04;;;;;;;0.88;0.47;;;14.20;99.90;;;;;;4961888;29;20059;-78
2022/08/13 02:37:30;;;;;;;0.82;0.77;;;14.20;99.90;;;;;;4961942;28;20095;-76
2022/08/13 02:40:00;;;;;;;0.10;0.10;;;14.20;99.90;;;;;;4961554;28;20079;-77
2022/08/13 02:42:28;;;;;;;1.73;0.85;;;14.20;99.90;;;;;;4960981;28;20086;-77
2022/08/13 02:44:54;;;;;;;0.60;0.45;;;14.10;99.90;;;;;;4961736;28;20031;-77
2022/08/13 02:47:21;;;;;;;2.38;1.00;;;14.10;99.90;;;;;;4961857;29;20034;-76
2022/08/13 02:49:51;;;;;;;0.55;0.38;;;14.50;99.90;;;;;;4961227;28;20047;-77
2022/08/13 02:52:21;;;;;;;0.90;0.20;;;14.10;99.90;;;;;;4961479;28;20028;-76
2022/08/13 02:54:49;;;;;;;0.40;0.40;;;14.10;99.90;;;;;;4960839;29;20051;-77
2022/08/13 02:57:15;;;;;;;0.43;0.38;;;14.00;99.90;;;;;;4961443;28;20030;-77
2022/08/13 02:59:42;;;;;;;2.35;1.38;;;14.00;99.90;;;;;;4961060;28;20031;-76
2022/08/13 03:02:10;;;;;;;1.58;1.02;;;14.00;99.90;;;;;;4961154;28;20066;-77
2022/08/13 03:04:36;;;;;;;1.40;1.05;;;13.90;99.90;;;;;;4961206;28;20028;-77
2022/08/13 03:07:02;;;;;;;3.83;0.75;;;13.80;99.90;;;;;;4961024;29;20026;-77
2022/08/13 03:09:29;;;;;;;0.35;0.35;;;13.80;99.90;;;;;;4960686;28;20055;-76
2022/08/13 03:11:59;;;;;;;2.05;1.17;;;13.70;99.90;;;;;;4960464;28;20056;-77
2022/08/13 03:14:28;;;;;;;0.82;0.80;;;13.80;99.90;;;;;;4961375;28;20072;-75
2022/08/13 03:16:54;;;;;;;0.90;0.88;;;13.80;99.90;;;;;;4976051;28;20039;-77
2022/08/13 03:19:20;;;;;;;0.30;0.28;;;13.80;99.90;;;;;;4960825;28;20027;-78
2022/08/13 03:21:45;;;;;;;1.80;1.27;;;13.80;99.90;;;;;;4941986;29;20024;-76
2022/08/13 03:24:13;;;;;;;0.80;0.77;;;13.70;99.90;;;;;;4941442;29;20036;-76
2022/08/13 03:26:39;;;;;;;1.60;0.95;;;13.70;99.90;;;;;;4941827;29;20032;-77
2022/08/13 03:29:06;;;;;;;0.20;0.20;;;13.70;99.90;;;;;;4952158;29;20051;-77
2022/08/13 03:31:32;;;;;;;0.35;0.32;;;13.60;99.90;;;;;;4960295;28;20055;-76
2022/08/13 03:33:58;;;;;;;0.45;0.45;;;13.60;99.90;;;;;;4960563;28;20031;-77
2022/08/13 03:36:26;;;;;;;0.50;0.43;;;13.60;99.90;;;;;;4960708;28;20067;-76
2022/08/13 03:38:51;;;;;;;0.55;0.55;;;13.50;99.90;;;;;;4960521;28;20022;-76
2022/08/13 03:41:17;;;;;;;0.47;0.35;;;13.40;99.90;;;;;;4960308;28;20043;-76
2022/08/13 03:43:47;;;;;;;0.20;0.20;;;13.50;99.90;;;;;;4960692;28;20047;-77
2022/08/13 03:46:14;;;;;;;0.30;0.30;;;13.50;99.90;;;;;;4960570;29;20082;-78
2022/08/13 03:48:40;;;;;;;1.08;0.50;;;13.40;99.90;;;;;;4960512;29;20019;-77
2022/08/13 03:51:06;;;;;;;0.00;0.00;;;14.20;99.90;;;;;;4960370;28;20027;-77
2022/08/13 03:53:33;;;;;;;0.50;0.50;;;13.30;99.90;;;;;;4959658;28;20047;-76
2022/08/13 03:56:00;;;;;;;1.10;0.90;;;13.40;99.90;;;;;;4960384;29;20124;-76
2022/08/13 03:58:28;;;;;;;0.45;0.38;;;13.40;99.90;;;;;;4960394;28;20054;-77
2022/08/13 04:00:54;;;;;;;2.55;1.48;;;13.40;99.90;;;;;;4959826;28;20040;-76
2022/08/13 04:03:36;;;;;;;1.55;0.90;;;13.30;99.90;;;;;;4960275;28;20027;-78
2022/08/13 04:06:08;;;;;;;2.55;1.77;;;13.30;99.90;;;;;;4960382;29;20087;-77
2022/08/13 04:08:36;;;;;;;2.47;0.63;;;13.30;99.90;;;;;;4960085;28;20055;-74
2022/08/13 04:11:04;;;;;;;0.55;0.50;;;13.30;99.90;;;;;;4960008;28;20042;-75
2022/08/13 04:13:36;;;;;;;0.52;0.52;;;13.60;99.90;;;;;;4960333;28;20052;-74
2022/08/13 04:16:21;;;;;;;0.93;0.73;;;13.30;99.90;;;;;;4960107;28;20028;-75
2022/08/13 04:18:49;;;;;;;0.75;0.50;;;13.40;99.90;;;;;;4960215;29;20028;-75
2022/08/13 04:21:16;;;;;;;1.23;0.88;;;13.40;99.90;;;;;;4959751;29;20040;-75
2022/08/13 04:23:43;;;;;;;2.25;1.33;;;13.40;99.90;;;;;;4959841;29;20067;-74
2022/08/13 04:26:14;;;;;;;0.60;0.45;;;13.40;99.90;;;;;;4959670;29;20042;-74
2022/08/13 04:28:41;;;;;;;0.57;0.57;;;13.50;99.90;;;;;;4962639;28;20083;-75
2022/08/13 04:31:09;;;;;;;0.52;0.52;;;13.50;99.90;;;;;;4963620;29;20043;-76
2022/08/13 04:33:36;;;;;;;1.00;0.75;;;13.40;99.90;;;;;;4963623;28;20049;-74
2022/08/13 04:36:03;;;;;;;3.58;1.25;;;13.30;99.90;;;;;;4963717;28;20059;-74
2022/08/13 04:38:29;;;;;;;1.45;0.85;;;13.30;99.90;;;;;;4963538;29;20039;-75
2022/08/13 04:40:55;;;;;;;0.65;0.52;;;13.30;99.90;;;;;;4963098;29;20054;-75
2022/08/13 04:43:21;;;;;;;0.50;0.50;;;13.30;99.90;;;;;;4963413;28;20055;-75
2022/08/13 04:45:47;;;;;;;0.85;0.63;;;13.40;99.90;;;;;;4963396;29;20023;-74
2022/08/13 04:48:15;;;;;;;2.15;0.88;;;13.50;99.90;;;;;;4963546;29;20027;-75
2022/08/13 04:50:43;;;;;;;0.35;0.35;;;13.60;99.90;;;;;;4963406;28;20095;-74
2022/08/13 04:53:27;;;;;;;0.77;0.45;;;13.60;99.90;;;;;;4978587;28;20031;-75
2022/08/13 04:55:54;;;;;;;0.65;0.40;;;13.60;99.90;;;;;;4963529;29;20028;-74
2022/08/13 04:58:19;;;;;;;0.50;0.40;;;13.70;99.90;;;;;;4963598;29;20024;-74
2022/08/13 05:00:45;;;;;;;2.42;1.80;;;13.70;99.90;;;;;;4962774;29;20048;-75
2022/08/13 05:03:16;;;;;;;1.50;1.30;;;13.90;99.90;;;;;;4963019;29;20099;-76
2022/08/13 05:05:43;;;;;;;0.73;0.73;;;13.90;99.90;;;;;;4963093;28;20016;-74
2022/08/13 05:08:11;;;;;;;0.95;0.70;;;13.90;99.90;;;;;;4978601;28;20671;-75
2022/08/13 05:10:38;;;;;;;2.50;0.85;;;13.90;99.90;;;;;;4962815;29;20019;-75
2022/08/13 05:13:18;;;;;;;0.98;0.88;;;14.10;99.90;;;;;;4963069;28;20032;-74
2022/08/13 05:15:44;;;;;;;1.38;0.75;;;14.10;99.90;;;;;;4963155;29;20071;-74
2022/08/13 05:18:09;;;;;;;0.47;0.45;;;14.20;99.90;;;;;;4962812;29;20028;-74
2022/08/13 05:20:35;;;;;;;0.30;0.30;;;14.30;99.90;;;;;;4961837;28;20028;-76
2022/08/13 05:23:06;;;;;;;1.15;0.60;;;14.40;99.90;;;;;;4962644;29;20059;-76
2022/08/13 05:25:32;;;;;;;0.55;0.55;;;14.50;99.90;;;;;;4963197;28;20044;-75
2022/08/13 05:27:58;;;;;;;0.68;0.50;;;14.60;99.90;;;;;;4962773;28;20064;-74
2022/08/13 05:30:25;;;;;;;0.38;0.38;;;14.80;99.90;;;;;;4962784;29;20027;-75
2022/08/13 05:32:52;;;;;;;1.35;0.50;;;14.90;99.90;;;;;;4962081;28;20087;-76
2022/08/13 05:35:17;;;;;;;0.90;0.85;;;15.10;99.90;;;;;;4962520;28;20027;-77
2022/08/13 05:37:43;;;;;;;0.90;0.63;;;15.20;99.90;;;;;;4944943;29;20099;-76
2022/08/13 05:40:09;;;;;;;24.13;2.03;;;15.30;99.90;;;;;;4962125;28;20020;-76
2022/08/13 05:42:39;;;;;;;0.70;0.52;;;15.50;99.90;;;;;;4962594;28;20038;-76
2022/08/13 05:45:08;;;;;;;1.10;0.68;;;15.60;99.90;;;;;;4962716;28;20052;-76
2022/08/13 05:47:36;;;;;;;4.20;1.25;;;15.70;99.90;;;;;;4962462;28;20039;-76
2022/08/13 05:50:13;;;;;;;0.55;0.55;;;15.90;99.90;;;;;;4962392;28;20093;-76
2022/08/13 05:52:39;;;;;;;0.65;0.65;;;16.10;99.90;;;;;;4962511;29;20031;-75
2022/08/13 05:55:12;;;;;;;0.68;0.47;;;16.40;99.90;;;;;;4962378;28;20050;-76
2022/08/13 05:57:40;;;;;;;0.85;0.60;;;16.50;99.90;;;;;;4962588;28;20038;-76
2022/08/13 06:05:38;;;;;;;0.43;0.35;;;17.10;99.90;;;;;;4962243;28;20032;-75
2022/08/13 06:08:06;;;;;;;1.15;0.70;;;17.20;99.90;;;;;;4962155;28;20043;-76
2022/08/13 06:10:33;;;;;;;0.77;0.65;;;17.50;99.90;;;;;;4962152;28;20024;-76
2022/08/13 06:12:59;;;;;;;1.25;1.02;;;17.60;99.90;;;;;;4977552;28;20043;-75
2022/08/13 06:15:26;;;;;;;3.58;0.93;;;17.70;99.90;;;;;;4961950;28;20032;-75
2022/08/13 06:17:52;;;;;;;0.65;0.55;;;17.90;99.90;;;;;;4961933;28;20090;-77
2022/08/13 06:20:20;;;;;;;0.80;0.47;;;18.90;99.90;;;;;;4962026;29;20034;-75
2022/08/13 06:22:51;;;;;;;0.40;0.38;;;20.00;99.90;;;;;;4961884;29;20035;-75
2022/08/13 06:25:17;;;;;;;6.18;1.90;;;20.90;99.90;;;;;;4961934;28;20044;-76
2022/08/13 06:27:43;;;;;;;0.88;0.70;;;21.50;99.90;;;;;;4962128;29;20071;-77
2022/08/13 06:30:11;;;;;;;0.50;0.47;;;22.10;99.90;;;;;;4961761;29;20040;-76
2022/08/13 06:32:37;;;;;;;0.47;0.40;;;22.90;92.60;;;;;;4961564;29;20044;-75
2022/08/13 06:35:06;;;;;;;0.28;0.28;;;22.80;68.90;;;;;;4977089;28;20100;-76
2022/08/13 06:37:32;;;;;;;0.88;0.70;;;23.30;68.80;;;;;;4961843;29;20051;-77
2022/08/13 06:40:00;;;;;;;1.98;0.50;;;23.60;58.70;;;;;;4961545;29;20076;-76
2022/08/13 06:42:27;;;;;;;0.52;0.32;;;23.80;55.60;;;;;;4976184;28;20095;-77
2022/08/13 06:44:55;;;;;;;0.55;0.55;;;23.80;49.50;;;;;;4965666;28;20043;-75
2022/08/13 06:47:23;;;;;;;0.63;0.52;;;24.00;43.80;;;;;;4972840;28;20026;-75
2022/08/13 06:49:49;;;;;;;0.10;0.10;;;24.50;42.30;;;;;;4965919;29;20039;-76
2022/08/13 06:52:15;;;;;;;0.10;0.10;;;24.70;50.40;;;;;;4960306;29;20074;-77
2022/08/13 06:54:42;;;;;;;0.73;0.40;;;24.60;55.00;;;;;;4960351;29;20043;-75
2022/08/13 06:57:09;;;;;;;0.10;0.10;;;25.00;45.00;;;;;;4961374;29;20072;-76
2022/08/13 06:59:39;;;;;;;1.42;0.50;;;25.40;40.90;;;;;;4960643;29;20087;-76
2022/08/13 07:02:07;;;;;;;0.55;0.20;;;25.50;26.40;;;;;;4958655;29;20023;-77
2022/08/13 07:04:33;;;;;;;0.85;0.45;;;26.00;30.80;;;;;;4958675;29;20058;-77
2022/08/13 07:06:59;;;;;;;0.90;0.68;;;25.80;27.90;;;;;;4957843;29;20032;-77
2022/08/13 07:09:25;;;;;;;0.45;0.45;;;25.70;24.90;;;;;;4958548;28;20063;-77
2022/08/13 07:11:51;;;;;;;0.52;0.50;;;26.70;24.50;;;;;;4957989;28;20039;-76
2022/08/13 07:14:16;;;;;;;0.73;0.40;;;26.60;23.30;;;;;;4956618;29;20072;-77
2022/08/13 07:16:44;;;;;;;0.52;0.35;;;27.60;22.00;;;;;;4956810;29;20028;-75
2022/08/13 07:19:14;;;;;;;1.95;0.43;;;27.40;10.00;;;;;;4963079;28;20043;-75
2022/08/13 07:21:40;;;;;;;0.32;0.32;;;27.60;15.40;;;;;;4957653;28;20050;-77
2022/08/13 07:24:11;;;;;;;0.35;0.10;;;27.30;14.00;;;;;;4955803;29;20043;-77
2022/08/13 07:26:37;;;;;;;0.30;0.28;;;28.00;8.50;;;;;;4936035;29;20036;-76
2022/08/13 07:29:05;;;;;;;0.00;0.00;;;28.50;3.30;;;;;;4944532;29;20035;-76
2022/08/13 07:31:33;;;;;;;0.35;0.25;;;28.70;3.70;;;;;;4953911;29;20052;-77
2022/08/13 07:34:04;;;;;;;0.22;0.15;;;29.30;4.50;;;;;;4952579;29;20076;-77
2022/08/13 07:36:33;;;;;;;0.60;0.38;;;29.30;1.00;;;;;;4952636;29;20044;-76
2022/08/13 07:39:11;;;;;;;0.30;0.30;;;29.60;1.00;;;;;;4955037;29;20074;-78
2022/08/13 07:41:41;;;;;;;0.00;0.00;;;29.20;1.00;;;;;;4955331;29;20030;-77
2022/08/13 07:44:11;;;;;;;0.25;0.20;;;29.80;2.00;;;;;;4956227;29;20070;-77
2022/08/13 07:46:44;;;;;;;0.50;0.40;;;30.50;1.00;;;;;;4955180;29;20035;-77
2022/08/13 07:49:12;;;;;;;0.10;0.10;;;29.70;1.00;;;;;;4954704;29;20035;-77
2022/08/13 07:51:38;;;;;;;0.30;0.20;;;29.40;1.00;;;;;;4954731;29;20371;-76
2022/08/13 07:54:06;;;;;;;0.63;0.52;;;29.70;1.00;;;;;;4953915;29;20036;-76
2022/08/13 07:56:32;;;;;;;0.17;0.13;;;29.60;1.00;;;;;;4954759;29;20052;-77
2022/08/13 07:59:07;;;;;;;0.47;0.32;;;30.00;1.00;;;;;;4952684;29;20103;-76
2022/08/13 08:01:44;;;;;;;1.20;0.35;;;29.50;1.00;;;;;;4952794;29;20051;-77
2022/08/13 08:04:13;;;;;;;0.05;0.05;;;30.50;1.00;;;;;;4954995;29;20023;-77
2022/08/13 08:06:41;;;;;;;0.10;0.10;;;30.30;1.00;;;;;;4954443;29;20044;-76
2022/08/13 08:09:08;;;;;;;0.85;0.47;;;30.40;1.00;;;;;;4954316;29;20020;-78
2022/08/13 08:14:19;;;;;;;0.15;0.15;;;30.30;1.00;;;;;;4947053;29;20035;-78
2022/08/13 08:16:46;;;;;;;0.52;0.20;;;30.80;1.00;;;;;;4952309;29;20070;-76
2022/08/13 08:19:14;;;;;;;0.15;0.08;;;31.40;1.00;;;;;;4952493;29;20054;-76
2022/08/13 08:21:41;;;;;;;3.40;1.02;;;31.50;1.00;;;;;;4954225;29;20055;-75
2022/08/13 08:24:07;;;;;;;0.00;0.00;;;31.20;1.00;;;;;;4917843;29;1030316;-77
2022/08/13 08:26:34;;;;;;;0.47;0.20;;;31.30;1.00;;;;;;4953995;29;20142;-77
2022/08/13 08:29:05;;;;;;;0.08;0.00;;;31.80;1.00;;;;;;4968235;28;20086;-76
2022/08/13 08:31:32;;;;;;;0.20;0.10;;;31.40;1.00;;;;;;4953660;29;20050;-77
2022/08/13 08:34:00;;;;;;;2.38;0.50;;;31.70;1.00;;;;;;4953279;29;20087;-76
2022/08/13 08:36:27;;;;;;;0.20;0.20;;;31.50;1.00;;;;;;4953758;29;20051;-77
2022/08/13 08:44:32;;;;;;;0.00;0.00;;;31.10;1.00;;;;;;4955586;29;20040;-76
2022/08/13 08:46:58;;;;;;;0.52;0.45;;;30.50;1.00;;;;;;4958728;29;20024;-76
2022/08/13 08:49:25;;;;;;;0.03;0.03;;;30.90;1.00;;;;;;4974454;28;20080;-76
2022/08/13 08:51:52;;;;;;;0.73;0.40;;;31.70;1.00;;;;;;4958831;29;20032;-75
2022/08/13 08:54:20;;;;;;;0.00;0.00;;;32.50;1.00;;;;;;4958705;29;20067;-76
2022/08/13 08:56:47;;;;;;;0.90;0.50;;;32.30;1.00;;;;;;4958573;29;20039;-75
2022/08/13 08:59:14;;;;;;;0.00;0.00;;;32.90;1.00;;;;;;4958982;29;20035;-76
2022/08/13 09:01:44;;;;;;;0.30;0.28;;;33.50;1.00;;;;;;4957868;29;20043;-76
2022/08/13 09:04:11;;;;;;;0.40;0.40;;;32.70;1.00;;;;;;4958687;29;20031;-76
2022/08/13 09:06:38;;;;;;;0.10;0.10;;;32.90;1.00;;;;;;4974125;28;20032;-76
2022/08/13 09:09:07;;;;;;;0.68;0.30;;;32.90;1.00;;;;;;4958934;29;20028;-77
2022/08/13 09:11:36;;;;;;;0.10;0.10;;;32.60;1.00;;;;;;4958563;29;20064;-76
2022/08/13 09:14:07;;;;;;;0.00;0.00;;;31.80;1.00;;;;;;4958831;29;20071;-75
2022/08/13 09:16:36;;;;;;;0.28;0.22;;;31.90;1.00;;;;;;4962491;28;20044;-75
2022/08/13 09:19:02;;;;;;;0.00;0.00;;;31.70;1.00;;;;;;4961964;28;20031;-74
2022/08/13 09:21:28;;;;;;;0.00;0.00;;;31.80;1.00;;;;;;4961563;28;20047;-75
2022/08/13 09:23:56;;;;;;;0.55;0.20;;;31.70;1.00;;;;;;4961595;29;20035;-75
2022/08/13 09:26:22;;;;;;;0.03;0.03;;;31.90;1.00;;;;;;4977103;28;20087;-76
2022/08/13 09:28:56;;;;;;;2.08;0.70;;;31.50;1.00;;;;;;4962153;28;20099;-76
2022/08/13 09:31:23;;;;;;;0.73;0.30;;;31.50;1.00;;;;;;4962436;28;20028;-76
2022/08/13 09:33:48;;;;;;;0.05;0.05;;;31.80;1.00;;;;;;4961316;29;20087;-75
2022/08/13 09:36:15;;;;;;;0.28;0.25;;;31.40;1.00;;;;;;4962315;29;20047;-75
2022/08/13 09:38:42;;;;;;;0.20;0.20;;;32.10;1.00;;;;;;4962475;29;20035;-76
2022/08/13 09:41:28;;;;;;;0.05;0.05;;;32.90;1.00;;;;;;4962207;28;20060;-76
2022/08/13 09:43:57;;;;;;;0.00;0.00;;;32.50;1.00;;;;;;4961033;29;20039;-75
2022/08/13 09:46:23;;;;;;;0.10;0.10;;;32.00;1.00;;;;;;4961502;29;20040;-75
2022/08/13 09:48:54;;;;;;;2.72;0.30;;;32.30;1.00;;;;;;4961780;29;20024;-75
2022/08/13 09:51:21;;;;;;;0.30;0.20;;;31.70;1.00;;;;;;4960790;29;20034;-76
2022/08/13 09:53:47;;;;;;;0.17;0.10;;;31.80;1.00;;;;;;4961871;29;20035;-77
2022/08/13 09:56:17;;;;;;;0.10;0.10;;;31.80;1.00;;;;;;4961580;29;20044;-76
2022/08/13 09:58:51;;;;;;;0.17;0.03;;;31.60;1.00;;;;;;4961782;29;20039;-75
2022/08/13 10:01:19;;;;;;;0.30;0.30;;;31.60;1.00;;;;;;4961203;29;20083;-74
2022/08/13 10:03:48;;;;;;;0.63;0.32;;;31.60;1.00;;;;;;4961509;29;20035;-75
2022/08/13 10:06:18;;;;;;;0.03;0.03;;;31.70;1.00;;;;;;4960942;29;20044;-75
2022/08/13 10:08:46;;;;;;;0.10;0.10;;;31.70;1.00;;;;;;4959977;29;20046;-75
2022/08/13 10:11:14;;;;;;;0.00;0.00;;;31.00;1.00;;;;;;4960942;29;20051;-75
2022/08/13 10:13:40;;;;;;;0.00;0.00;;;31.30;1.00;;;;;;4961396;29;20052;-74
2022/08/13 10:16:05;;;;;;;1.35;0.47;;;31.10;1.00;;;;;;4961423;29;20039;-76
2022/08/13 10:18:31;;;;;;;0.10;0.10;;;31.10;1.00;;;;;;4959603;29;20023;-75
2022/08/13 10:20:57;;;;;;;0.35;0.30;;;30.90;1.00;;;;;;4959704;29;20031;-75
2022/08/13 10:23:23;;;;;;;0.10;0.10;;;31.10;1.00;;;;;;4959209;29;20040;-75
2022/08/13 10:25:52;;;;;;;0.28;0.25;;;30.90;1.00;;;;;;4958683;29;20052;-74
2022/08/13 10:28:25;;;;;;;0.08;0.08;;;30.80;1.00;;;;;;4956688;29;20075;-74
2022/08/13 10:30:51;;;;;;;0.25;0.22;;;30.70;1.00;;;;;;4957658;29;20051;-74
2022/08/13 10:33:17;;;;;;;0.90;0.38;;;30.90;1.00;;;;;;4958426;29;20043;-74
2022/08/13 10:35:45;;;;;;;0.20;0.20;;;31.00;1.00;;;;;;4959824;29;20039;-75
2022/08/13 10:38:16;;;;;;;0.20;0.20;;;31.30;1.00;;;;;;4972839;28;20032;-75
2022/08/13 10:40:42;;;;;;;0.20;0.17;;;31.30;1.00;;;;;;4959554;29;20039;-75
2022/08/13 10:43:09;;;;;;;0.00;0.00;;;31.40;1.00;;;;;;4959132;29;20087;-76
2022/08/13 10:45:34;;;;;;;7.13;0.70;;;31.40;1.00;;;;;;4959304;29;20595;-75
2022/08/13 10:48:02;;;;;;;0.45;0.32;;;31.40;1.00;;;;;;4958854;29;20040;-75
2022/08/13 10:50:31;;;;;;;0.10;0.10;;;31.30;1.00;;;;;;4960435;29;20032;-75
2022/08/13 10:52:58;;;;;;;0.10;0.10;;;31.70;1.00;;;;;;4957922;29;20075;-74
2022/08/13 10:55:25;;;;;;;0.95;0.52;;;31.60;1.00;;;;;;4955651;29;20054;-74
2022/08/13 10:57:51;;;;;;;0.57;0.20;;;31.00;1.00;;;;;;4957490;29;20048;-74
2022/08/13 11:00:18;;;;;;;0.10;0.10;;;31.10;1.00;;;;;;4955477;29;20054;-75
2022/08/13 11:02:50;;;;;;;0.13;0.10;;;31.20;1.00;;;;;;4959579;29;20028;-76
2022/08/13 11:05:26;;;;;;;0.22;0.20;;;31.30;1.00;;;;;;4958792;29;20055;-75
2022/08/13 11:07:53;;;;;;;26.15;0.70;;;31.60;1.00;;;;;;4959340;29;20051;-75
2022/08/13 11:10:20;;;;;;;0.00;0.00;;;31.80;1.00;;;;;;4959749;28;20031;-76
2022/08/13 11:12:50;;;;;;;3.28;0.57;;;32.00;1.00;;;;;;4958590;29;20063;-75
2022/08/13 11:15:22;;;;;;;0.32;0.20;;;31.70;1.00;;;;;;4959853;29;20048;-75
2022/08/13 11:17:53;;;;;;;0.00;0.00;;;31.90;1.00;;;;;;4959164;29;20043;-75
2022/08/13 11:20:22;;;;;;;1.00;0.28;;;32.20;1.00;;;;;;4958427;29;20052;-74
2022/08/13 11:22:50;;;;;;;10.77;3.30;;;32.10;1.00;;;;;;4958288;29;20051;-76
2022/08/13 11:25:17;;;;;;;0.68;0.50;;;32.60;1.00;;;;;;4957843;29;20048;-74
2022/08/13 11:27:42;;;;;;;0.28;0.20;;;32.50;1.00;;;;;;4960036;29;20482;-75
2022/08/13 11:30:09;;;;;;;2.25;0.98;;;32.90;1.00;;;;;;4960195;29;20020;-76
2022/08/13 11:32:35;;;;;;;0.17;0.17;;;33.00;1.00;;;;;;4963361;28;20256;-76
2022/08/13 11:35:02;;;;;;;0.20;0.10;;;33.30;1.00;;;;;;4979278;28;20038;-77
2022/08/13 11:37:28;;;;;;;0.38;0.20;;;33.00;1.00;;;;;;4961487;28;20032;-78
2022/08/13 11:39:53;;;;;;;0.00;0.00;;;33.50;1.00;;;;;;4970907;28;20071;-77
2022/08/13 11:42:19;;;;;;;0.20;0.17;;;34.30;1.00;;;;;;4968325;28;20099;-77
2022/08/13 11:44:44;;;;;;;0.00;0.00;;;35.60;1.00;;;;;;4960276;28;20034;-79
2022/08/13 11:47:10;;;;;;;2.60;0.80;;;35.50;1.00;;;;;;4964807;28;20027;-77
2022/08/13 11:49:35;;;;;;;0.08;0.08;;;35.60;1.00;;;;;;4964840;28;20024;-78
2022/08/13 11:52:04;;;;;;;0.20;0.20;;;35.30;1.00;;;;;;4967985;28;20058;-78
2022/08/13 11:54:29;;;;;;;0.10;0.10;;;35.50;1.00;;;;;;4969573;28;20051;-76
2022/08/13 11:56:55;;;;;;;0.00;0.00;;;35.30;1.00;;;;;;4968024;28;20059;-79
2022/08/13 11:59:20;;;;;;;0.10;0.10;;;35.80;1.00;;;;;;4969836;28;20070;-78
2022/08/13 12:01:46;;;;;;;0.32;0.25;;;35.30;1.00;;;;;;4967949;28;20044;-76
2022/08/13 12:04:12;;;;;;;0.00;0.00;;;35.10;1.00;;;;;;4960221;28;20039;-78
2022/08/13 12:06:39;;;;;;;0.47;0.25;;;34.60;1.00;;;;;;4959161;28;20058;-78
2022/08/13 12:09:04;;;;;;;0.10;0.10;;;35.00;1.00;;;;;;4959433;28;20042;-77
2022/08/13 12:11:32;;;;;;;0.30;0.17;;;36.10;1.00;;;;;;4959386;28;20067;-78
2022/08/13 12:13:57;;;;;;;0.30;0.25;;;36.10;1.00;;;;;;4959969;29;20036;-79
2022/08/13 12:16:23;;;;;;;0.10;0.10;;;36.90;1.00;;;;;;4971213;28;20039;-78
2022/08/13 12:18:48;;;;;;;1.45;0.38;;;37.10;1.00;;;;;;4973711;28;20079;-78
2022/08/13 12:21:14;;;;;;;0.10;0.10;;;37.50;1.00;;;;;;4970746;28;20058;-78
2022/08/13 12:23:40;;;;;;;0.00;0.00;;;37.40;1.00;;;;;;4961304;28;20031;-76
2022/08/13 12:26:06;;;;;;;0.10;0.03;;;36.80;1.00;;;;;;4969984;28;20058;-78
2022/08/13 12:28:32;;;;;;;0.38;0.32;;;35.40;1.00;;;;;;4970318;28;20048;-77
2022/08/13 12:31:00;;;;;;;0.10;0.10;;;35.60;1.00;;;;;;4968528;28;20666;-78
2022/08/13 12:33:29;;;;;;;0.85;0.20;;;36.30;1.00;;;;;;4967776;28;20094;-79
2022/08/13 12:35:55;;;;;;;0.68;0.45;;;35.20;1.00;;;;;;4968082;28;20088;-75
2022/08/13 12:38:21;;;;;;;0.85;0.20;;;34.70;1.00;;;;;;4964548;28;20031;-79
2022/08/13 12:40:47;;;;;;;0.10;0.10;;;34.40;1.00;;;;;;4967852;28;20032;-79
2022/08/13 12:43:14;;;;;;;0.28;0.10;;;34.40;1.00;;;;;;4969745;28;20032;-78
2022/08/13 12:45:42;;;;;;;0.30;0.30;;;34.70;1.00;;;;;;4967178;28;20043;-77
2022/08/13 12:48:15;;;;;;;1.70;0.13;;;35.10;1.00;;;;;;4968328;28;20039;-75
2022/08/13 12:50:45;;;;;;;0.00;0.00;;;36.00;1.00;;;;;;4975604;28;20086;-74
2022/08/13 12:53:11;;;;;;;0.22;0.08;;;36.30;1.00;;;;;;4963408;28;20042;-74
2022/08/13 12:55:39;;;;;;;1.65;0.35;;;36.80;1.00;;;;;;4962101;29;20036;-74
2022/08/13 12:58:25;;;;;;;0.65;0.15;;;35.70;1.00;;;;;;4962270;29;20047;-75
2022/08/13 13:00:53;;;;;;;0.00;0.00;;;36.20;1.00;;;;;;4962057;28;20069;-76
2022/08/13 13:03:19;;;;;;;0.98;0.40;;;35.90;1.00;;;;;;4961538;29;20047;-76
2022/08/13 13:05:47;;;;;;;0.15;0.10;;;37.40;1.00;;;;;;4960411;29;20051;-76
2022/08/13 13:08:16;;;;;;;0.00;0.00;;;36.40;1.00;;;;;;4969008;28;20040;-73
2022/08/13 13:10:43;;;;;;;1.20;0.40;;;35.80;1.00;;;;;;4961232;29;20055;-74
2022/08/13 13:13:09;;;;;;;17.40;3.45;;;36.50;1.00;;;;;;4961375;29;20036;-74
2022/08/13 13:15:34;;;;;;;0.77;0.60;;;37.20;1.00;;;;;;4961145;29;20046;-75